Time;durP1;ratioP1;P1;durP2;ratioP2;P2;SDS_P1;SDS_P2;PMS_P1;PMS_P2;Temp;Humidity;BMP_temperature;BMP_pressure;BME280_temperature;BME280_humidity;BME280_pressure;Samples;Min_cycle;Max_cycle;Signal;HPM_P1;HPM_P2
2023/12/28 00:01:05;;;;;;;20.73;6.63;;;;;;;;;;5058857;28;20401;-75
2023/12/28 00:03:31;;;;;;;20.92;5.43;;;;;;;;;;5059081;28;20121;-75
2023/12/28 00:05:57;;;;;;;27.92;6.65;;;;;;;;;;5049023;28;20119;-75
2023/12/28 00:08:23;;;;;;;24.27;6.35;;;;;;;;;;5046028;28;20917;-75
2023/12/28 00:10:49;;;;;;;19.83;5.57;;;;;;;;;;5046124;28;20056;-75
2023/12/28 00:13:15;;;;;;;32.13;7.80;;;;;;;;;;5048571;28;20123;-75
2023/12/28 00:15:41;;;;;;;27.85;6.05;;;;;;;;;;5042622;28;20123;-75
2023/12/28 00:18:07;;;;;;;21.13;6.38;;;;;;;;;;5048004;28;20044;-75
2023/12/28 00:20:34;;;;;;;28.10;7.80;;;;;;;;;;5064849;28;20106;-75
2023/12/28 00:23:00;;;;;;;22.95;6.60;;;;;;;;;;5048962;28;20064;-75
2023/12/28 00:25:26;;;;;;;22.90;6.75;;;;;;;;;;5065111;28;20044;-75
2023/12/28 00:27:52;;;;;;;25.50;6.47;;;;;;;;;;5046609;28;20518;-75
2023/12/28 00:30:18;;;;;;;30.50;6.20;;;;;;;;;;5046332;28;20048;-75
2023/12/28 00:32:45;;;;;;;23.08;5.88;;;;;;;;;;5047762;28;20079;-75
2023/12/28 00:35:11;;;;;;;36.22;8.43;;;;;;;;;;5047733;28;20072;-76
2023/12/28 00:37:37;;;;;;;19.60;5.13;;;;;;;;;;5048636;28;20392;-75
2023/12/28 00:40:04;;;;;;;31.73;6.50;;;;;;;;;;5045328;28;20384;-75
2023/12/28 00:42:33;;;;;;;28.52;6.75;;;;;;;;;;5064256;28;20048;-75
2023/12/28 00:44:59;;;;;;;27.63;5.47;;;;;;;;;;5043822;28;20499;-75
2023/12/28 00:47:25;;;;;;;37.03;6.75;;;;;;;;;;5045811;28;20048;-75
2023/12/28 00:49:51;;;;;;;26.23;7.80;;;;;;;;;;5046485;28;20530;-76
2023/12/28 00:52:20;;;;;;;36.55;6.72;;;;;;;;;;5049343;28;20131;-75
2023/12/28 00:54:46;;;;;;;27.52;6.25;;;;;;;;;;5047886;28;20090;-75
2023/12/28 00:57:12;;;;;;;23.83;6.38;;;;;;;;;;5050848;28;20048;-75
2023/12/28 00:59:38;;;;;;;26.33;5.07;;;;;;;;;;5066234;28;20047;-75
2023/12/28 01:02:04;;;;;;;22.40;6.25;;;;;;;;;;5049454;28;20056;-75
2023/12/28 01:04:30;;;;;;;31.48;6.40;;;;;;;;;;5048361;28;20075;-75
2023/12/28 01:06:57;;;;;;;23.90;5.57;;;;;;;;;;5069368;28;20504;-76
2023/12/28 01:09:23;;;;;;;16.95;4.65;;;;;;;;;;5053239;28;20048;-75
2023/12/28 01:11:49;;;;;;;26.50;5.47;;;;;;;;;;5046217;28;20055;-75
2023/12/28 01:14:15;;;;;;;27.83;5.25;;;;;;;;;;5051969;28;20056;-75
2023/12/28 01:16:43;;;;;;;26.55;6.45;;;;;;;;;;5049695;28;20036;-75
2023/12/28 01:19:09;;;;;;;24.92;5.55;;;;;;;;;;5049838;28;20044;-75
2023/12/28 01:21:38;;;;;;;23.83;5.75;;;;;;;;;;5049572;28;20469;-75
2023/12/28 01:24:04;;;;;;;22.15;4.90;;;;;;;;;;5053035;28;20092;-75
2023/12/28 01:26:30;;;;;;;22.73;5.22;;;;;;;;;;5051756;28;20064;-75
2023/12/28 01:28:56;;;;;;;21.70;5.13;;;;;;;;;;5051739;28;20049;-75
2023/12/28 01:31:23;;;;;;;20.80;4.65;;;;;;;;;;5047553;28;20037;-75
2023/12/28 01:33:49;;;;;;;27.67;5.65;;;;;;;;;;5049765;28;20589;-75
2023/12/28 01:36:21;;;;;;;27.20;6.50;;;;;;;;;;5050066;28;20047;-75
2023/12/28 01:38:49;;;;;;;27.45;6.80;;;;;;;;;;5068240;28;20044;-75
2023/12/28 01:41:16;;;;;;;27.27;6.13;;;;;;;;;;5049194;28;20530;-75
2023/12/28 01:43:42;;;;;;;26.00;6.35;;;;;;;;;;5053238;28;20120;-75
2023/12/28 01:46:11;;;;;;;28.80;6.57;;;;;;;;;;5052524;28;20084;-75
2023/12/28 01:48:37;;;;;;;30.58;7.07;;;;;;;;;;5050753;28;20080;-75
2023/12/28 01:51:03;;;;;;;24.98;5.38;;;;;;;;;;5049631;28;20488;-75
2023/12/28 01:53:29;;;;;;;32.72;7.07;;;;;;;;;;5047554;28;20052;-75
2023/12/28 01:55:56;;;;;;;29.67;6.47;;;;;;;;;;5045879;28;20056;-75
2023/12/28 01:58:22;;;;;;;18.65;5.15;;;;;;;;;;5048106;28;20067;-75
2023/12/28 02:00:49;;;;;;;21.75;5.63;;;;;;;;;;5062622;28;20543;-75
2023/12/28 02:03:16;;;;;;;27.20;6.20;;;;;;;;;;5066568;28;20036;-75
2023/12/28 02:05:46;;;;;;;20.20;5.13;;;;;;;;;;5049375;28;20097;-75
2023/12/28 02:08:12;;;;;;;19.20;5.00;;;;;;;;;;5047504;28;20048;-75
2023/12/28 02:10:39;;;;;;;34.33;6.97;;;;;;;;;;5068261;28;20135;-75
2023/12/28 02:13:05;;;;;;;20.10;5.65;;;;;;;;;;5067741;28;20523;-75
2023/12/28 02:15:31;;;;;;;23.48;6.18;;;;;;;;;;5065507;28;20091;-75
2023/12/28 02:17:57;;;;;;;17.98;5.10;;;;;;;;;;5062775;28;20128;-75
2023/12/28 02:20:24;;;;;;;25.88;5.60;;;;;;;;;;5050328;28;20476;-75
2023/12/28 02:22:50;;;;;;;23.92;5.38;;;;;;;;;;5048475;28;20388;-75
2023/12/28 02:25:16;;;;;;;28.63;6.25;;;;;;;;;;5047412;28;20128;-75
2023/12/28 02:27:43;;;;;;;20.08;4.40;;;;;;;;;;5049778;28;20435;-75
2023/12/28 02:30:12;;;;;;;27.30;6.40;;;;;;;;;;5048842;28;20040;-75
2023/12/28 02:32:57;;;;;;;23.70;5.45;;;;;;;;;;5049548;28;20044;-75
2023/12/28 02:35:24;;;;;;;22.02;4.80;;;;;;;;;;5051097;28;20052;-75
2023/12/28 02:37:52;;;;;;;27.40;5.85;;;;;;;;;;5049233;28;20044;-75
2023/12/28 02:40:19;;;;;;;14.68;4.18;;;;;;;;;;5049712;28;20040;-75
2023/12/28 02:42:45;;;;;;;22.45;5.40;;;;;;;;;;5044182;28;20037;-75
2023/12/28 02:45:11;;;;;;;20.90;5.05;;;;;;;;;;5064896;28;20404;-76
2023/12/28 02:47:37;;;;;;;21.08;4.97;;;;;;;;;;5044471;28;20041;-75
2023/12/28 02:50:03;;;;;;;20.25;5.10;;;;;;;;;;5049592;28;20051;-75
2023/12/28 02:52:29;;;;;;;22.13;5.05;;;;;;;;;;5046129;28;20102;-75
2023/12/28 02:54:55;;;;;;;15.85;4.50;;;;;;;;;;5043868;28;20385;-75
2023/12/28 02:57:21;;;;;;;22.00;5.68;;;;;;;;;;5046071;28;20101;-75
2023/12/28 02:59:48;;;;;;;19.55;5.30;;;;;;;;;;5045856;28;20048;-75
2023/12/28 03:02:14;;;;;;;21.83;5.78;;;;;;;;;;5040946;28;20496;-75
2023/12/28 03:04:40;;;;;;;21.23;5.07;;;;;;;;;;5040900;28;20036;-75
2023/12/28 03:07:07;;;;;;;19.70;5.05;;;;;;;;;;5062411;28;20038;-75
2023/12/28 03:09:34;;;;;;;24.05;5.07;;;;;;;;;;5051379;28;20063;-75
2023/12/28 03:12:00;;;;;;;19.60;4.72;;;;;;;;;;5043501;28;20488;-75
2023/12/28 03:14:26;;;;;;;16.85;4.15;;;;;;;;;;5046732;28;20079;-75
2023/12/28 03:16:52;;;;;;;19.98;4.35;;;;;;;;;;5063574;28;20444;-75
2023/12/28 03:19:18;;;;;;;19.15;3.55;;;;;;;;;;5049249;28;20051;-75
2023/12/28 03:21:47;;;;;;;13.05;4.70;;;;;;;;;;5050357;28;20070;-75
2023/12/28 03:24:13;;;;;;;18.27;4.38;;;;;;;;;;5049727;28;20041;-75
2023/12/28 03:26:39;;;;;;;12.73;3.72;;;;;;;;;;5046022;28;20060;-75
2023/12/28 03:29:08;;;;;;;15.05;4.68;;;;;;;;;;5067580;28;20040;-75
2023/12/28 03:31:34;;;;;;;18.42;5.25;;;;;;;;;;5062858;28;20162;-75
2023/12/28 03:34:00;;;;;;;21.05;5.50;;;;;;;;;;5046728;28;20535;-75
2023/12/28 03:36:26;;;;;;;21.65;4.70;;;;;;;;;;5049621;28;20513;-75
2023/12/28 03:38:52;;;;;;;14.30;4.55;;;;;;;;;;5046557;28;20044;-76
2023/12/28 03:41:21;;;;;;;17.98;4.40;;;;;;;;;;5047061;28;20033;-75
2023/12/28 03:43:48;;;;;;;25.48;5.30;;;;;;;;;;5062587;28;20044;-75
2023/12/28 03:46:14;;;;;;;24.88;5.63;;;;;;;;;;5044975;28;20041;-75
2023/12/28 03:48:40;;;;;;;21.38;4.57;;;;;;;;;;5044808;28;20063;-75
2023/12/28 03:51:06;;;;;;;21.15;5.07;;;;;;;;;;5049163;28;20083;-75
2023/12/28 03:53:32;;;;;;;22.45;5.47;;;;;;;;;;5046218;28;20049;-75
2023/12/28 03:55:59;;;;;;;17.45;4.55;;;;;;;;;;5046711;28;20036;-75
2023/12/28 03:58:25;;;;;;;23.38;5.00;;;;;;;;;;5048242;28;20040;-75
2023/12/28 04:00:51;;;;;;;21.63;4.95;;;;;;;;;;5044653;28;20135;-75
2023/12/28 04:03:17;;;;;;;21.00;5.82;;;;;;;;;;5045450;28;20124;-75
2023/12/28 04:05:44;;;;;;;22.27;5.03;;;;;;;;;;5043964;28;20504;-75
2023/12/28 04:08:10;;;;;;;27.90;6.22;;;;;;;;;;5046959;28;20066;-75
2023/12/28 04:10:39;;;;;;;31.30;5.72;;;;;;;;;;5049937;28;20133;-75
2023/12/28 04:13:05;;;;;;;23.50;4.90;;;;;;;;;;5050208;28;20053;-75
2023/12/28 04:15:31;;;;;;;22.05;5.68;;;;;;;;;;5046292;28;20120;-75
2023/12/28 04:17:57;;;;;;;17.42;5.00;;;;;;;;;;5049463;28;20046;-75
2023/12/28 04:20:24;;;;;;;22.77;5.28;;;;;;;;;;5046467;28;20097;-75
2023/12/28 04:22:50;;;;;;;24.33;4.93;;;;;;;;;;5045657;28;20518;-75
2023/12/28 04:25:16;;;;;;;22.45;5.72;;;;;;;;;;5051286;28;20040;-75
2023/12/28 04:27:42;;;;;;;27.42;6.28;;;;;;;;;;5052895;28;20052;-75
2023/12/28 04:30:12;;;;;;;26.60;6.00;;;;;;;;;;5050489;28;20094;-75
2023/12/28 04:32:39;;;;;;;25.80;6.30;;;;;;;;;;5052936;28;20407;-75
2023/12/28 04:35:05;;;;;;;31.75;5.97;;;;;;;;;;5053834;28;20049;-75
2023/12/28 04:37:32;;;;;;;22.83;5.65;;;;;;;;;;5050559;28;20408;-75
2023/12/28 04:39:58;;;;;;;23.85;5.18;;;;;;;;;;5052729;28;20567;-75
2023/12/28 04:42:25;;;;;;;17.63;4.57;;;;;;;;;;5047715;28;20094;-75
2023/12/28 04:44:51;;;;;;;22.83;6.40;;;;;;;;;;5051599;28;20048;-75
2023/12/28 04:47:17;;;;;;;26.13;6.63;;;;;;;;;;5049614;28;20135;-75
2023/12/28 04:49:43;;;;;;;23.30;6.28;;;;;;;;;;5050008;28;20055;-75
2023/12/28 04:52:09;;;;;;;29.40;5.38;;;;;;;;;;5050287;28;20037;-75
2023/12/28 04:54:35;;;;;;;22.88;5.60;;;;;;;;;;5052319;28;20119;-75
2023/12/28 04:57:01;;;;;;;18.23;5.63;;;;;;;;;;5064896;28;20076;-75
2023/12/28 04:59:27;;;;;;;24.83;5.20;;;;;;;;;;5063199;28;20067;-75
2023/12/28 05:01:53;;;;;;;27.05;6.70;;;;;;;;;;5048891;28;20078;-75
2023/12/28 05:04:19;;;;;;;33.20;6.07;;;;;;;;;;5047083;28;21531;-75
2023/12/28 05:06:45;;;;;;;30.75;7.18;;;;;;;;;;5048463;28;20064;-75
2023/12/28 05:09:11;;;;;;;26.02;6.63;;;;;;;;;;5050325;28;20036;-75
2023/12/28 05:11:37;;;;;;;35.17;7.32;;;;;;;;;;5046661;28;20163;-75
2023/12/28 05:14:03;;;;;;;31.80;6.30;;;;;;;;;;5047650;28;20044;-75
2023/12/28 05:16:32;;;;;;;30.77;7.60;;;;;;;;;;5049488;28;20091;-75
2023/12/28 05:18:58;;;;;;;33.00;5.93;;;;;;;;;;5049543;28;20067;-75
2023/12/28 05:21:24;;;;;;;24.17;6.07;;;;;;;;;;5051446;28;20052;-75
2023/12/28 05:23:50;;;;;;;31.67;7.68;;;;;;;;;;5050940;28;20118;-75
2023/12/28 05:26:16;;;;;;;29.10;6.10;;;;;;;;;;5063920;28;20743;-75
2023/12/28 05:28:42;;;;;;;25.90;5.78;;;;;;;;;;5066594;28;20048;-75
2023/12/28 05:31:08;;;;;;;31.13;5.68;;;;;;;;;;5068963;28;20049;-75
2023/12/28 05:33:36;;;;;;;21.13;6.32;;;;;;;;;;5051181;28;20044;-75
2023/12/28 05:36:02;;;;;;;27.85;7.50;;;;;;;;;;5048880;28;20048;-75
2023/12/28 05:38:28;;;;;;;33.22;7.88;;;;;;;;;;5051413;28;20040;-75
2023/12/28 05:40:54;;;;;;;30.00;6.38;;;;;;;;;;5049771;28;20093;-75
2023/12/28 05:43:20;;;;;;;34.33;7.78;;;;;;;;;;5048984;28;20454;-75
2023/12/28 05:45:46;;;;;;;25.08;6.32;;;;;;;;;;5046163;28;20052;-75
2023/12/28 05:48:12;;;;;;;23.17;6.68;;;;;;;;;;5050056;28;20041;-75
2023/12/28 05:50:39;;;;;;;27.30;5.60;;;;;;;;;;5050214;28;20825;-75
2023/12/28 05:53:05;;;;;;;31.73;7.55;;;;;;;;;;5047636;28;20052;-75
2023/12/28 05:55:31;;;;;;;37.72;7.25;;;;;;;;;;5048114;28;20044;-75
2023/12/28 05:57:57;;;;;;;16.30;4.88;;;;;;;;;;5050962;28;20056;-75
2023/12/28 06:00:23;;;;;;;25.17;7.50;;;;;;;;;;5048177;28;20048;-75
2023/12/28 06:02:51;;;;;;;28.48;5.82;;;;;;;;;;5048809;28;20590;-75
2023/12/28 06:05:17;;;;;;;22.88;7.00;;;;;;;;;;5046499;28;20066;-75
2023/12/28 06:07:43;;;;;;;30.23;7.00;;;;;;;;;;5048872;28;20044;-75
2023/12/28 06:10:10;;;;;;;22.95;6.07;;;;;;;;;;5051049;28;20427;-75
2023/12/28 06:12:36;;;;;;;32.78;6.60;;;;;;;;;;5049691;28;20047;-75
2023/12/28 06:15:03;;;;;;;32.67;5.50;;;;;;;;;;5049960;28;20078;-74
2023/12/28 06:17:29;;;;;;;32.03;7.22;;;;;;;;;;5047283;28;20048;-75
2023/12/28 06:19:55;;;;;;;34.00;7.30;;;;;;;;;;5050097;28;20045;-75
2023/12/28 06:22:21;;;;;;;27.63;6.70;;;;;;;;;;5049006;28;20052;-75
2023/12/28 06:24:47;;;;;;;24.63;5.57;;;;;;;;;;5049310;28;20052;-75
2023/12/28 06:27:13;;;;;;;37.00;7.15;;;;;;;;;;5047934;28;20048;-75
2023/12/28 06:29:39;;;;;;;30.45;6.30;;;;;;;;;;5046996;28;20040;-75
2023/12/28 06:32:05;;;;;;;32.45;8.07;;;;;;;;;;5049212;28;20041;-75
2023/12/28 06:34:31;;;;;;;35.08;7.68;;;;;;;;;;5064314;28;20488;-75
2023/12/28 06:36:57;;;;;;;28.63;6.07;;;;;;;;;;5050255;28;20044;-75
2023/12/28 06:39:23;;;;;;;31.77;6.40;;;;;;;;;;5050427;28;20076;-75
2023/12/28 06:41:49;;;;;;;36.20;7.13;;;;;;;;;;5047299;28;20431;-75
2023/12/28 06:44:15;;;;;;;26.33;6.72;;;;;;;;;;5049122;28;20048;-75
2023/12/28 06:46:44;;;;;;;31.45;6.47;;;;;;;;;;5047758;28;20127;-75
2023/12/28 06:49:10;;;;;;;32.83;7.47;;;;;;;;;;5048894;28;20060;-75
2023/12/28 06:51:37;;;;;;;25.55;7.18;;;;;;;;;;5048116;28;20044;-75
2023/12/28 06:54:03;;;;;;;28.65;7.28;;;;;;;;;;5046903;28;20044;-75
2023/12/28 06:56:29;;;;;;;37.25;8.32;;;;;;;;;;5043753;28;20056;-75
2023/12/28 06:58:55;;;;;;;24.30;6.68;;;;;;;;;;5048166;28;20052;-75
2023/12/28 07:01:21;;;;;;;25.65;6.50;;;;;;;;;;5045919;28;20044;-75
2023/12/28 07:03:47;;;;;;;31.42;8.70;;;;;;;;;;5046058;28;20036;-76
2023/12/28 07:06:14;;;;;;;35.80;8.40;;;;;;;;;;5047305;28;20051;-75
2023/12/28 07:08:40;;;;;;;34.80;8.07;;;;;;;;;;5047346;28;20060;-75
2023/12/28 07:11:06;;;;;;;20.30;5.85;;;;;;;;;;5044167;28;20041;-75
2023/12/28 07:13:32;;;;;;;42.30;10.15;;;;;;;;;;5045715;28;20126;-75
2023/12/28 07:15:58;;;;;;;31.15;7.15;;;;;;;;;;5045045;28;20392;-75
2023/12/28 07:18:24;;;;;;;33.92;7.20;;;;;;;;;;5042623;28;20048;-75
2023/12/28 07:20:50;;;;;;;28.88;7.50;;;;;;;;;;5045164;28;20058;-76
2023/12/28 07:23:17;;;;;;;36.67;8.27;;;;;;;;;;5050674;28;20036;-77
2023/12/28 07:25:43;;;;;;;43.65;8.80;;;;;;;;;;5046336;28;20048;-76
2023/12/28 07:28:09;;;;;;;48.65;9.57;;;;;;;;;;5042476;28;20057;-76
2023/12/28 07:30:35;;;;;;;30.00;8.10;;;;;;;;;;5051672;28;20049;-75
2023/12/28 07:33:01;;;;;;;46.83;9.90;;;;;;;;;;5050928;28;20044;-75
2023/12/28 07:35:27;;;;;;;46.65;8.73;;;;;;;;;;5047428;28;20090;-76
2023/12/28 07:37:54;;;;;;;45.63;9.02;;;;;;;;;;5042958;28;20485;-76
2023/12/28 07:40:20;;;;;;;42.47;8.88;;;;;;;;;;5049390;28;20052;-76
2023/12/28 07:42:46;;;;;;;39.08;9.00;;;;;;;;;;5045763;28;20094;-76
2023/12/28 07:45:12;;;;;;;44.15;9.00;;;;;;;;;;5051358;28;20048;-75
2023/12/28 07:47:38;;;;;;;36.25;7.28;;;;;;;;;;5067131;28;20055;-75
2023/12/28 07:50:05;;;;;;;50.78;10.20;;;;;;;;;;5048318;28;20094;-79
2023/12/28 07:52:31;;;;;;;37.05;9.15;;;;;;;;;;5045988;28;20048;-80
2023/12/28 07:54:58;;;;;;;39.97;9.02;;;;;;;;;;5071026;28;20473;-81
2023/12/28 07:57:24;;;;;;;56.08;10.43;;;;;;;;;;5046479;28;20048;-79
2023/12/28 07:59:50;;;;;;;50.28;10.85;;;;;;;;;;5047855;28;20079;-83
2023/12/28 08:02:16;;;;;;;60.10;12.52;;;;;;;;;;5075256;28;20165;-82
2023/12/28 08:04:42;;;;;;;47.53;10.27;;;;;;;;;;5066908;28;20398;-80
2023/12/28 08:07:08;;;;;;;44.10;10.88;;;;;;;;;;5060369;28;20044;-80
2023/12/28 08:09:35;;;;;;;49.47;10.25;;;;;;;;;;5081652;28;20040;-80
2023/12/28 08:12:02;;;;;;;47.42;8.25;;;;;;;;;;5078801;28;20040;-80
2023/12/28 08:14:28;;;;;;;51.55;10.43;;;;;;;;;;5059445;28;20083;-80
2023/12/28 08:16:54;;;;;;;49.55;9.88;;;;;;;;;;5047325;28;20101;-79
2023/12/28 08:19:20;;;;;;;55.80;10.02;;;;;;;;;;5064448;28;20041;-79
2023/12/28 08:21:47;;;;;;;40.10;9.90;;;;;;;;;;5070916;28;20507;-80
2023/12/28 08:24:13;;;;;;;58.83;9.82;;;;;;;;;;5050286;28;20053;-80
2023/12/28 08:26:39;;;;;;;48.65;10.00;;;;;;;;;;5054257;28;20063;-81
2023/12/28 08:29:05;;;;;;;41.30;9.70;;;;;;;;;;5054735;28;20484;-80
2023/12/28 08:31:34;;;;;;;51.55;10.07;;;;;;;;;;5071465;28;20048;-81
2023/12/28 08:34:00;;;;;;;46.70;10.13;;;;;;;;;;5050037;28;20412;-82
2023/12/28 08:36:26;;;;;;;47.00;10.05;;;;;;;;;;5045401;28;20052;-82
2023/12/28 08:38:52;;;;;;;44.67;9.82;;;;;;;;;;5045909;28;20045;-81
2023/12/28 08:41:23;;;;;;;41.03;8.85;;;;;;;;;;5052456;28;20048;-81
2023/12/28 08:43:49;;;;;;;48.80;10.32;;;;;;;;;;5047959;28;20135;-85
2023/12/28 08:46:15;;;;;;;38.20;8.55;;;;;;;;;;5066410;28;20496;-83
2023/12/28 08:48:42;;;;;;;39.15;8.48;;;;;;;;;;5065917;28;20619;-85
2023/12/28 08:51:08;;;;;;;41.05;9.15;;;;;;;;;;5049907;28;20063;-78
2023/12/28 08:53:34;;;;;;;39.00;8.68;;;;;;;;;;5052620;28;20040;-80
2023/12/28 08:56:00;;;;;;;51.22;9.80;;;;;;;;;;5064764;28;20411;-79
2023/12/28 08:58:26;;;;;;;45.13;8.77;;;;;;;;;;5045128;28;20033;-81
2023/12/28 09:00:52;;;;;;;43.17;9.93;;;;;;;;;;5043183;28;20041;-81
2023/12/28 09:03:18;;;;;;;44.17;10.32;;;;;;;;;;5048562;28;20052;-86
2023/12/28 09:05:44;;;;;;;30.35;7.78;;;;;;;;;;5050359;28;20037;-87
2023/12/28 09:08:10;;;;;;;28.05;6.40;;;;;;;;;;5054345;28;20049;-86
2023/12/28 09:10:36;;;;;;;42.88;9.52;;;;;;;;;;5054074;28;20036;-87
2023/12/28 09:13:05;;;;;;;45.95;9.00;;;;;;;;;;5052905;28;20051;-87
2023/12/28 09:15:32;;;;;;;33.80;8.85;;;;;;;;;;5045642;28;20041;-88
2023/12/28 09:17:58;;;;;;;52.80;10.05;;;;;;;;;;5036504;28;20049;-88
2023/12/28 09:20:24;;;;;;;46.38;8.73;;;;;;;;;;5038468;28;20053;-88
2023/12/28 09:22:53;;;;;;;42.75;7.90;;;;;;;;;;5055466;28;20064;-88
2023/12/28 09:25:19;;;;;;;40.05;8.02;;;;;;;;;;5047646;28;20045;-87
2023/12/28 09:27:45;;;;;;;42.65;8.07;;;;;;;;;;5037623;28;20061;-89
2023/12/28 09:30:11;;;;;;;36.35;9.02;;;;;;;;;;5042097;28;20048;-88
2023/12/28 09:32:37;;;;;;;40.92;9.65;;;;;;;;;;5048168;28;20381;-87
2023/12/28 09:35:04;;;;;;;34.20;7.22;;;;;;;;;;5053650;28;20067;-87
2023/12/28 09:37:30;;;;;;;52.03;9.18;;;;;;;;;;5052675;28;20536;-87
2023/12/28 09:39:56;;;;;;;49.65;10.32;;;;;;;;;;5049705;28;20480;-87
2023/12/28 09:42:32;;;;;;;39.97;8.93;;;;;;;;;;5069701;28;20118;-87
2023/12/28 09:44:58;;;;;;;32.53;8.45;;;;;;;;;;5069567;28;20048;-85
2023/12/28 09:47:24;;;;;;;33.90;6.88;;;;;;;;;;5041527;28;20051;-87
2023/12/28 09:49:50;;;;;;;39.28;6.38;;;;;;;;;;5050943;28;20052;-87
2023/12/28 09:52:17;;;;;;;30.30;7.03;;;;;;;;;;5044984;28;20104;-86
2023/12/28 09:54:43;;;;;;;43.65;9.23;;;;;;;;;;5053029;28;20507;-88
2023/12/28 09:57:09;;;;;;;39.97;8.70;;;;;;;;;;5050509;28;20393;-88
2023/12/28 09:59:35;;;;;;;34.25;6.80;;;;;;;;;;5048368;28;20469;-88
2023/12/28 10:02:04;;;;;;;44.42;10.75;;;;;;;;;;5052031;28;20056;-87
2023/12/28 10:04:31;;;;;;;33.60;8.15;;;;;;;;;;5072285;28;20040;-88
2023/12/28 10:06:57;;;;;;;36.50;7.90;;;;;;;;;;5064680;28;20080;-88
2023/12/28 10:09:26;;;;;;;37.33;7.88;;;;;;;;;;5051524;28;20048;-88
2023/12/28 10:11:53;;;;;;;48.35;8.18;;;;;;;;;;5071877;28;20044;-87
2023/12/28 10:14:20;;;;;;;30.75;7.15;;;;;;;;;;5043827;28;20488;-89
2023/12/28 10:16:46;;;;;;;24.67;6.32;;;;;;;;;;5072039;28;20548;-88
2023/12/28 10:19:12;;;;;;;29.25;8.70;;;;;;;;;;5048677;28;20132;-88
2023/12/28 10:21:43;;;;;;;37.97;8.52;;;;;;;;;;5051699;28;20119;-88
2023/12/28 10:24:10;;;;;;;31.38;6.47;;;;;;;;;;5052240;28;20048;-87
2023/12/28 10:26:36;;;;;;;23.13;7.30;;;;;;;;;;5057950;28;20070;-87
2023/12/28 10:29:03;;;;;;;29.90;6.57;;;;;;;;;;5057754;28;20052;-87
2023/12/28 10:31:29;;;;;;;29.20;6.50;;;;;;;;;;5055832;28;20480;-87
2023/12/28 10:33:59;;;;;;;43.33;7.90;;;;;;;;;;5044426;28;20048;-87
2023/12/28 10:36:27;;;;;;;37.28;8.35;;;;;;;;;;5036107;28;20048;-87
2023/12/28 10:38:54;;;;;;;43.17;8.15;;;;;;;;;;5037686;28;20053;-87
2023/12/28 10:41:20;;;;;;;29.13;7.90;;;;;;;;;;5068642;28;20480;-87
2023/12/28 10:43:51;;;;;;;37.97;8.18;;;;;;;;;;5049907;28;20425;-86
2023/12/28 10:46:38;;;;;;;32.30;7.18;;;;;;;;;;5050824;28;20049;-87
2023/12/28 10:49:15;;;;;;;38.95;8.23;;;;;;;;;;5061008;28;20503;-87
2023/12/28 10:51:48;;;;;;;45.60;9.07;;;;;;;;;;5072402;28;20109;-86
2023/12/28 10:54:24;;;;;;;34.70;8.40;;;;;;;;;;5051697;28;20575;-87
2023/12/28 10:56:54;;;;;;;28.65;7.40;;;;;;;;;;5048254;28;20557;-87
2023/12/28 10:59:27;;;;;;;39.80;7.82;;;;;;;;;;5046252;28;20080;-86
2023/12/28 11:01:55;;;;;;;44.15;8.95;;;;;;;;;;5050527;28;20467;-86
2023/12/28 11:04:27;;;;;;;39.47;8.50;;;;;;;;;;5062426;28;20044;-87
2023/12/28 11:06:53;;;;;;;36.08;7.85;;;;;;;;;;5067863;28;20484;-87
2023/12/28 11:09:21;;;;;;;39.92;8.88;;;;;;;;;;5043238;28;20473;-85
2023/12/28 11:11:47;;;;;;;27.10;7.40;;;;;;;;;;5044507;28;20048;-87
2023/12/28 11:14:13;;;;;;;42.75;11.20;;;;;;;;;;5067699;28;20048;-87
2023/12/28 11:16:41;;;;;;;33.28;7.45;;;;;;;;;;5043089;28;20475;-88
2023/12/28 11:19:08;;;;;;;41.72;8.73;;;;;;;;;;5065264;28;20559;-88
2023/12/28 11:21:34;;;;;;;46.35;8.07;;;;;;;;;;5047131;28;20044;-88
2023/12/28 11:24:00;;;;;;;31.27;6.43;;;;;;;;;;5044473;28;20597;-86
2023/12/28 11:26:28;;;;;;;27.90;6.68;;;;;;;;;;5066791;28;20061;-88
2023/12/28 11:29:01;;;;;;;31.10;7.38;;;;;;;;;;5050569;28;20056;-87
2023/12/28 11:31:27;;;;;;;37.38;9.00;;;;;;;;;;5064501;28;20040;-87
2023/12/28 11:33:53;;;;;;;40.60;10.20;;;;;;;;;;5051197;28;20109;-88
2023/12/28 11:36:24;;;;;;;35.33;9.07;;;;;;;;;;5049127;28;20469;-87
2023/12/28 11:38:54;;;;;;;36.22;9.82;;;;;;;;;;5045703;28;20082;-87
2023/12/28 11:41:26;;;;;;;36.90;8.30;;;;;;;;;;5047479;28;20048;-86
2023/12/28 11:43:52;;;;;;;28.63;8.18;;;;;;;;;;5045927;28;20472;-87
2023/12/28 11:46:19;;;;;;;39.97;9.48;;;;;;;;;;5049116;28;20127;-86
2023/12/28 11:48:48;;;;;;;33.83;8.43;;;;;;;;;;5043233;28;20048;-87
2023/12/28 11:51:14;;;;;;;48.30;8.30;;;;;;;;;;5048506;28;20182;-88
2023/12/28 11:53:42;;;;;;;39.55;9.13;;;;;;;;;;5067312;28;20482;-88
2023/12/28 11:56:09;;;;;;;50.58;9.75;;;;;;;;;;5052237;28;20088;-87
2023/12/28 11:58:35;;;;;;;38.70;8.88;;;;;;;;;;5049381;28;20067;-88
2023/12/28 12:01:04;;;;;;;43.83;11.52;;;;;;;;;;5050501;28;20119;-87
2023/12/28 12:03:30;;;;;;;41.20;9.32;;;;;;;;;;5067858;28;20041;-88
2023/12/28 12:05:57;;;;;;;35.22;8.98;;;;;;;;;;5045545;28;20040;-88
2023/12/28 12:08:23;;;;;;;46.65;8.88;;;;;;;;;;5049681;28;20446;-87
2023/12/28 12:10:59;;;;;;;42.72;8.75;;;;;;;;;;5052180;28;20135;-88
2023/12/28 12:13:25;;;;;;;27.88;6.38;;;;;;;;;;5050171;28;20374;-88
2023/12/28 12:15:52;;;;;;;37.97;7.88;;;;;;;;;;5054343;28;20037;-88
2023/12/28 12:18:18;;;;;;;42.05;8.55;;;;;;;;;;5043410;28;20080;-87
2023/12/28 12:20:45;;;;;;;32.60;7.78;;;;;;;;;;5063265;28;20048;-88
2023/12/28 12:23:12;;;;;;;41.38;8.50;;;;;;;;;;5038317;28;20041;-88
2023/12/28 12:25:38;;;;;;;37.35;8.35;;;;;;;;;;5033707;28;20052;-88
2023/12/28 12:28:05;;;;;;;37.67;7.45;;;;;;;;;;5034992;28;20451;-88
2023/12/28 12:30:30;;;;;;;28.10;6.88;;;;;;;;;;5043581;28;20032;-88
2023/12/28 12:32:57;;;;;;;31.05;7.15;;;;;;;;;;5043851;28;20511;-87
2023/12/28 12:35:23;;;;;;;37.50;8.25;;;;;;;;;;5060436;28;20087;-88
2023/12/28 12:37:50;;;;;;;34.30;7.65;;;;;;;;;;5053066;28;20186;-89
2023/12/28 12:40:18;;;;;;;44.15;8.57;;;;;;;;;;5051378;28;20091;-88
2023/12/28 12:42:51;;;;;;;32.17;7.78;;;;;;;;;;5059561;28;20070;-89
2023/12/28 12:45:18;;;;;;;31.75;7.85;;;;;;;;;;5047896;28;20044;-89
2023/12/28 12:47:45;;;;;;;34.65;7.43;;;;;;;;;;5048054;28;20119;-90
2023/12/28 12:50:11;;;;;;;34.58;8.00;;;;;;;;;;5053628;28;20044;-89
2023/12/28 12:52:37;;;;;;;44.67;9.23;;;;;;;;;;5053427;28;20047;-88
2023/12/28 12:55:03;;;;;;;41.55;8.15;;;;;;;;;;5061412;28;20072;-89
2023/12/28 12:57:30;;;;;;;29.80;6.70;;;;;;;;;;5049540;28;20104;-89
2023/12/28 12:59:56;;;;;;;37.88;7.22;;;;;;;;;;5049355;28;20045;-89
2023/12/28 13:02:24;;;;;;;37.90;8.82;;;;;;;;;;5048005;28;20044;-89
2023/12/28 13:04:53;;;;;;;36.85;8.05;;;;;;;;;;5051121;28;20131;-88
2023/12/28 13:07:19;;;;;;;32.20;7.75;;;;;;;;;;5050091;28;20127;-89
2023/12/28 13:09:45;;;;;;;28.33;6.88;;;;;;;;;;5049540;28;20124;-89
2023/12/28 13:12:11;;;;;;;42.85;9.60;;;;;;;;;;5052547;28;20045;-88
2023/12/28 13:14:37;;;;;;;36.50;7.53;;;;;;;;;;5050970;28;20377;-88
2023/12/28 13:17:03;;;;;;;35.75;7.35;;;;;;;;;;5050692;28;20079;-89
2023/12/28 13:19:29;;;;;;;34.65;7.43;;;;;;;;;;5049930;28;20488;-88
2023/12/28 13:21:55;;;;;;;33.55;8.13;;;;;;;;;;5050469;28;20048;-88
2023/12/28 13:24:21;;;;;;;31.13;6.90;;;;;;;;;;5051123;28;20045;-88
2023/12/28 13:26:47;;;;;;;43.00;7.95;;;;;;;;;;5049356;28;20061;-89
2023/12/28 13:29:13;;;;;;;31.73;7.97;;;;;;;;;;5053611;28;20040;-89
2023/12/28 13:31:44;;;;;;;31.65;7.10;;;;;;;;;;5067471;28;20052;-89
2023/12/28 13:34:10;;;;;;;31.60;6.50;;;;;;;;;;5050322;28;20058;-88
2023/12/28 13:36:36;;;;;;;35.35;7.53;;;;;;;;;;5051202;28;20098;-89
2023/12/28 13:39:03;;;;;;;43.17;8.10;;;;;;;;;;5050991;28;20079;-88
2023/12/28 13:41:35;;;;;;;30.80;6.95;;;;;;;;;;5070030;28;20049;-87
2023/12/28 13:44:03;;;;;;;25.42;6.30;;;;;;;;;;5070781;28;20427;-88
2023/12/28 13:46:29;;;;;;;29.48;7.30;;;;;;;;;;5048214;28;20048;-87
2023/12/28 13:48:56;;;;;;;28.63;7.40;;;;;;;;;;5050879;28;20121;-88
2023/12/28 13:51:22;;;;;;;36.63;7.50;;;;;;;;;;5051931;28;20044;-88
2023/12/28 13:53:48;;;;;;;22.52;5.80;;;;;;;;;;5053013;28;20127;-89
2023/12/28 13:56:14;;;;;;;28.75;6.78;;;;;;;;;;5069824;28;20068;-89
2023/12/28 13:58:40;;;;;;;17.00;5.47;;;;;;;;;;5048043;28;20064;-88
2023/12/28 14:01:09;;;;;;;28.30;5.22;;;;;;;;;;5043271;28;20158;-88
2023/12/28 14:03:35;;;;;;;29.55;6.40;;;;;;;;;;5069369;28;20037;-89
2023/12/28 14:06:01;;;;;;;29.55;6.40;;;;;;;;;;5053145;28;20083;-88
2023/12/28 14:08:27;;;;;;;26.63;7.35;;;;;;;;;;5050090;28;20052;-91
2023/12/28 14:10:53;;;;;;;30.63;7.65;;;;;;;;;;5055901;28;20072;-90
2023/12/28 14:13:20;;;;;;;36.33;7.68;;;;;;;;;;5055856;28;20465;-89
2023/12/28 14:15:46;;;;;;;18.58;4.88;;;;;;;;;;5055880;28;20120;-90
2023/12/28 14:18:12;;;;;;;28.17;6.53;;;;;;;;;;5048258;28;20128;-89
2023/12/28 14:20:38;;;;;;;28.70;6.20;;;;;;;;;;5065727;28;20048;-88
2023/12/28 14:23:05;;;;;;;30.80;6.15;;;;;;;;;;5060727;28;20056;-90
2023/12/28 14:25:31;;;;;;;29.77;6.50;;;;;;;;;;5037151;28;20128;-88